createdAt,value
2019-04-20T00:00:10.958Z,6.70
2019-04-20T00:02:39.892Z,3.20
2019-04-20T00:05:07.510Z,2.85
2019-04-20T00:07:37.205Z,3.37
2019-04-20T00:10:10.903Z,4.35
2019-04-20T00:12:48.322Z,3.70
2019-04-20T00:15:02.947Z,5.33
2019-04-20T00:17:30.691Z,3.67
2019-04-20T00:19:58.995Z,3.42
2019-04-20T00:22:42.037Z,3.17
2019-04-20T00:25:12.284Z,3.72
2019-04-20T00:27:59.633Z,5.50
2019-04-20T00:30:28.199Z,3.05
2019-04-20T00:32:51.238Z,3.95
2019-04-20T00:35:04.374Z,3.37
2019-04-20T00:37:31.917Z,4.20
2019-04-20T00:39:59.563Z,3.35
2019-04-20T00:42:34.025Z,3.92
2019-04-20T00:45:03.090Z,3.45
2019-04-20T00:47:34.116Z,3.45
2019-04-20T00:50:08.137Z,3.08
2019-04-20T00:52:37.541Z,4.90
2019-04-20T00:54:49.434Z,3.67
2019-04-20T00:57:24.707Z,2.98
2019-04-20T01:00:09.358Z,2.83
2019-04-20T01:02:26.168Z,5.05
2019-04-20T01:05:04.587Z,6.50
2019-04-20T01:07:24.299Z,3.60
2019-04-20T01:10:00.554Z,4.10
2019-04-20T01:12:30.274Z,3.27
2019-04-20T01:15:01.250Z,3.83
2019-04-20T01:17:24.190Z,3.95
2019-04-20T01:19:52.784Z,3.22
2019-04-20T01:22:22.396Z,4.92
2019-04-20T01:24:48.728Z,3.77
2019-04-20T01:27:31.129Z,3.40
2019-04-20T01:29:50.956Z,3.25
2019-04-20T01:32:24.626Z,4.47
2019-04-20T01:34:52.477Z,3.15
2019-04-20T01:37:26.039Z,3.37
2019-04-20T01:39:44.355Z,3.60
2019-04-20T01:42:08.667Z,3.62
2019-04-20T01:44:41.398Z,3.20
2019-04-20T01:47:07.988Z,3.22
2019-04-20T01:49:35.700Z,3.55
2019-04-20T01:52:11.000Z,3.87
2019-04-20T01:54:52.768Z,3.35
2019-04-20T01:57:24.788Z,8.18
2019-04-20T02:00:06.077Z,5.87
2019-04-20T02:02:51.562Z,3.58
2019-04-20T02:05:20.666Z,3.52
2019-04-20T02:07:46.566Z,5.42
2019-04-20T02:10:13.111Z,5.67
2019-04-20T02:12:40.876Z,5.47
2019-04-20T02:15:21.121Z,3.52
2019-04-20T02:17:43.597Z,4.40
2019-04-20T02:20:31.703Z,3.80
2019-04-20T02:22:51.783Z,4.33
2019-04-20T02:25:07.854Z,3.40
2019-04-20T02:27:43.273Z,4.20
2019-04-20T02:30:44.925Z,5.03
2019-04-20T02:33:16.730Z,5.65
2019-04-20T02:35:47.998Z,5.47
2019-04-20T02:38:38.887Z,4.47
2019-04-20T02:43:53.581Z,4.03
2019-04-20T02:46:24.797Z,3.45
2019-04-20T02:48:40.736Z,3.55
2019-04-20T02:53:56.867Z,5.80
2019-04-20T02:56:06.597Z,3.83
2019-04-20T02:58:32.766Z,3.85
2019-04-20T03:00:52.613Z,4.15
2019-04-20T03:03:07.780Z,4.42
2019-04-20T03:05:33.204Z,5.40
2019-04-20T03:08:08.475Z,3.58
2019-04-20T03:10:46.418Z,3.83
2019-04-20T03:13:14.187Z,5.22
2019-04-20T03:15:37.941Z,3.50
2019-04-20T03:18:12.085Z,2.98
2019-04-20T03:20:42.969Z,6.50
2019-04-20T03:23:26.096Z,5.20
2019-04-20T03:25:48.357Z,5.05
2019-04-20T03:28:22.228Z,3.98
2019-04-20T03:33:44.606Z,4.65
2019-04-20T03:35:58.568Z,4.00
2019-04-20T03:38:19.787Z,4.78
2019-04-20T03:40:41.379Z,4.45
2019-04-20T03:42:57.349Z,4.90
2019-04-20T03:45:26.514Z,5.17
2019-04-20T03:48:04.441Z,3.10
2019-04-20T03:50:41.201Z,5.20
2019-04-20T03:53:12.870Z,3.40
2019-04-20T03:55:40.816Z,4.30
2019-04-20T03:58:18.510Z,5.55
2019-04-20T04:00:48.469Z,5.10
2019-04-20T04:03:44.115Z,5.28
2019-04-20T04:06:09.570Z,4.25
2019-04-20T04:08:32.613Z,3.37
2019-04-20T04:11:14.827Z,3.95
2019-04-20T04:13:23.059Z,5.42
2019-04-20T04:15:57.760Z,3.55
2019-04-20T04:18:28.178Z,3.83
2019-04-20T04:20:56.623Z,4.05
2019-04-20T04:23:33.626Z,6.92
2019-04-20T04:26:05.859Z,12.25
2019-04-20T04:28:28.230Z,19.62
2019-04-20T04:31:04.137Z,17.50
2019-04-20T04:35:56.865Z,19.45
2019-04-20T04:38:31.705Z,22.10
2019-04-20T04:41:06.506Z,23.20
2019-04-20T04:43:28.521Z,21.48
2019-04-20T04:45:35.247Z,18.67
2019-04-20T04:48:05.557Z,19.98
2019-04-20T04:50:31.840Z,18.55
2019-04-20T04:53:06.412Z,21.27
2019-04-20T04:55:37.097Z,17.60
2019-04-20T04:57:56.355Z,16.70
2019-04-20T05:00:28.200Z,17.12
2019-04-20T05:02:58.002Z,15.20
2019-04-20T05:05:45.267Z,16.32
2019-04-20T05:08:01.664Z,17.90
2019-04-20T05:10:19.502Z,25.62
2019-04-20T05:12:48.062Z,21.52
2019-04-20T05:15:31.063Z,12.03
2019-04-20T05:18:06.181Z,12.90
2019-04-20T05:20:35.320Z,12.40
2019-04-20T05:23:08.815Z,15.05
2019-04-20T05:25:50.900Z,11.63
2019-04-20T05:28:13.052Z,16.10
2019-04-20T05:30:38.814Z,23.15
2019-04-20T05:33:06.060Z,19.32
2019-04-20T05:35:48.577Z,35.28
2019-04-20T05:38:26.187Z,17.42
2019-04-20T05:40:47.726Z,14.13
2019-04-20T05:43:20.673Z,13.78
2019-04-20T05:45:45.428Z,13.83
2019-04-20T05:48:11.828Z,17.40
2019-04-20T05:50:43.503Z,14.33
2019-04-20T05:53:15.628Z,12.40
2019-04-20T05:55:43.116Z,12.55
2019-04-20T05:58:18.022Z,13.78
2019-04-20T06:00:49.724Z,12.58
2019-04-20T06:03:10.842Z,15.15
2019-04-20T06:05:49.501Z,11.60
2019-04-20T06:08:20.457Z,13.35
2019-04-20T06:10:38.416Z,11.63
2019-04-20T06:13:15.016Z,10.00
2019-04-20T06:15:46.678Z,13.88
2019-04-20T06:18:24.220Z,17.30
2019-04-20T06:20:58.940Z,8.85
2019-04-20T06:23:40.409Z,12.85
2019-04-20T06:26:20.643Z,16.55
2019-04-20T06:28:28.408Z,16.70
2019-04-20T06:30:52.808Z,16.70
2019-04-20T06:34:18.969Z,12.47
2019-04-20T06:36:40.021Z,14.75
2019-04-20T06:41:46.157Z,8.55
2019-04-20T06:44:06.512Z,13.38
2019-04-20T06:46:30.436Z,12.73
2019-04-20T06:49:05.648Z,9.18
2019-04-20T06:51:29.683Z,15.50
2019-04-20T06:53:52.540Z,12.03
2019-04-20T06:56:35.767Z,11.78
2019-04-20T06:59:12.258Z,11.55
2019-04-20T07:01:45.066Z,12.73
2019-04-20T07:04:24.788Z,11.73
2019-04-20T07:06:43.647Z,12.70
2019-04-20T07:11:30.678Z,7.67
2019-04-20T07:13:46.096Z,11.15
2019-04-20T07:16:40.747Z,9.98
2019-04-20T07:19:28.687Z,10.70
2019-04-20T07:22:23.103Z,7.95
2019-04-20T07:24:50.828Z,13.25
2019-04-20T07:27:08.062Z,14.90
2019-04-20T07:29:40.714Z,13.80
2019-04-20T07:31:58.882Z,9.93
2019-04-20T07:34:33.465Z,24.40
2019-04-20T07:37:28.177Z,8.90
2019-04-20T07:39:32.780Z,7.37
2019-04-20T07:42:00.112Z,13.48
2019-04-20T07:44:36.257Z,8.98
2019-04-20T07:47:01.533Z,11.68
2019-04-20T07:49:27.479Z,13.98
2019-04-20T07:51:35.747Z,12.50
2019-04-20T07:54:46.934Z,24.50
2019-04-20T07:56:48.016Z,20.72
2019-04-20T07:59:22.448Z,36.88
2019-04-20T08:02:37.834Z,15.25
2019-04-20T08:05:10.640Z,13.93
2019-04-20T08:07:40.859Z,10.88
2019-04-20T08:10:02.941Z,16.62
2019-04-20T08:12:55.636Z,10.55
2019-04-20T08:15:32.639Z,11.35
2019-04-20T08:17:51.228Z,11.70
2019-04-20T08:20:16.174Z,10.28
2019-04-20T08:22:47.514Z,9.63
2019-04-20T08:25:08.256Z,21.23
2019-04-20T08:30:36.349Z,10.20
2019-04-20T08:33:06.609Z,9.13
2019-04-20T08:35:41.561Z,10.38
2019-04-20T08:38:35.307Z,13.62
2019-04-20T08:40:37.282Z,15.32
2019-04-20T08:43:10.933Z,10.93
2019-04-20T08:45:37.874Z,11.28
2019-04-20T08:48:09.869Z,22.98
2019-04-20T08:50:29.943Z,9.20
2019-04-20T08:53:08.938Z,9.60
2019-04-20T08:55:23.906Z,9.00
2019-04-20T08:57:36.062Z,13.10
2019-04-20T09:00:07.248Z,10.48
2019-04-20T09:02:34.817Z,18.20
2019-04-20T09:05:07.049Z,14.07
2019-04-20T09:07:33.734Z,12.20
2019-04-20T09:10:24.087Z,25.90
2019-04-20T09:12:43.102Z,61.33
2019-04-20T09:14:55.307Z,98.20
2019-04-20T09:17:32.543Z,39.70
2019-04-20T09:20:01.394Z,73.15
2019-04-20T09:22:46.649Z,45.55
2019-04-20T09:25:42.750Z,81.63
2019-04-20T09:27:44.911Z,24.02
2019-04-20T09:30:24.356Z,34.35
2019-04-20T09:33:08.050Z,40.20
2019-04-20T09:35:30.156Z,41.70
2019-04-20T09:38:01.834Z,40.58
2019-04-20T09:40:31.173Z,18.00
2019-04-20T09:42:47.988Z,26.50
2019-04-20T09:45:23.179Z,12.30
2019-04-20T09:47:49.936Z,15.20
2019-04-20T09:50:37.077Z,19.02
2019-04-20T09:52:57.045Z,11.48
2019-04-20T09:55:26.790Z,16.75
2019-04-20T09:57:59.041Z,10.40
2019-04-20T10:00:23.580Z,9.30
2019-04-20T10:02:41.064Z,9.65
2019-04-20T10:05:09.335Z,11.48
2019-04-20T10:07:38.245Z,9.53
2019-04-20T10:10:17.923Z,7.75
2019-04-20T10:12:35.801Z,9.85
2019-04-20T10:15:12.459Z,8.73
2019-04-20T10:17:35.766Z,6.95
2019-04-20T10:20:10.866Z,7.47
2019-04-20T10:22:33.730Z,5.35
2019-04-20T10:25:00.276Z,7.08
2019-04-20T10:27:26.788Z,5.12
2019-04-20T10:29:53.553Z,4.80
2019-04-20T10:32:21.493Z,5.53
2019-04-20T10:34:48.631Z,3.45
2019-04-20T10:37:17.635Z,5.42
2019-04-20T10:39:44.683Z,4.70
2019-04-20T10:42:24.403Z,6.85
2019-04-20T10:44:54.913Z,4.72
2019-04-20T10:47:19.440Z,4.90
2019-04-20T10:49:47.008Z,3.50
2019-04-20T10:52:14.057Z,6.97
2019-04-20T10:54:42.685Z,4.08
2019-04-20T10:57:10.863Z,3.47
2019-04-20T10:59:41.499Z,5.35
2019-04-20T11:02:08.272Z,3.70
2019-04-20T11:04:35.023Z,4.00
2019-04-20T11:07:02.735Z,4.35
2019-04-20T11:09:29.907Z,3.45
2019-04-20T11:11:56.753Z,41.77
2019-04-20T11:14:30.995Z,17.10
2019-04-20T11:16:51.820Z,12.28
2019-04-20T11:19:19.004Z,16.85
2019-04-20T11:21:46.339Z,4.50
2019-04-20T11:24:14.233Z,8.33
2019-04-20T11:26:43.144Z,4.87
2019-04-20T11:29:10.565Z,4.97
2019-04-20T11:31:43.174Z,3.75
2019-04-20T11:34:23.562Z,6.35
2019-04-20T11:36:45.446Z,6.67
2019-04-20T11:39:12.858Z,4.15
2019-04-20T11:41:39.302Z,5.80
2019-04-20T11:44:05.849Z,3.80
2019-04-20T11:46:32.568Z,3.72
2019-04-20T11:48:59.478Z,3.30
2019-04-20T11:51:27.522Z,3.65
2019-04-20T11:54:14.577Z,4.70
2019-04-20T11:56:45.124Z,23.20
2019-04-20T11:59:12.460Z,5.20
2019-04-20T12:02:01.122Z,29.37
2019-04-20T12:04:40.395Z,6.45
2019-04-20T12:06:57.077Z,8.63
2019-04-20T12:09:24.611Z,5.65
2019-04-20T12:12:04.220Z,7.20
2019-04-20T12:14:20.814Z,3.85
2019-04-20T12:16:47.885Z,3.33
2019-04-20T12:19:14.736Z,8.05
2019-04-20T12:21:42.187Z,6.42
2019-04-20T12:24:10.126Z,3.50
2019-04-20T12:26:36.832Z,4.97
2019-04-20T12:29:03.591Z,5.47
2019-04-20T12:31:31.571Z,3.87
2019-04-20T12:33:58.179Z,4.47
2019-04-20T12:36:25.978Z,5.87
2019-04-20T12:39:13.259Z,8.68
2019-04-20T12:41:48.075Z,6.53
2019-04-20T12:44:09.658Z,10.50
2019-04-20T12:46:36.515Z,3.98
2019-04-20T12:49:03.170Z,7.50
2019-04-20T12:51:33.530Z,4.05
2019-04-20T12:53:58.444Z,6.65
2019-04-20T12:56:26.439Z,8.50
2019-04-20T12:58:53.618Z,3.58
2019-04-20T13:01:22.391Z,3.65
2019-04-20T13:03:49.828Z,5.65
2019-04-20T13:06:16.749Z,4.10
2019-04-20T13:08:48.980Z,3.90
2019-04-20T13:11:14.138Z,4.12
2019-04-20T13:14:02.225Z,3.40
2019-04-20T13:16:32.276Z,7.70
2019-04-20T13:19:01.528Z,4.72
2019-04-20T13:21:29.238Z,4.67
2019-04-20T13:23:56.523Z,5.03
2019-04-20T13:26:24.904Z,7.22
2019-04-20T13:28:52.936Z,4.95
2019-04-20T13:31:20.014Z,5.00
2019-04-20T13:33:47.583Z,6.65
2019-04-20T13:36:14.525Z,4.42
2019-04-20T13:38:42.372Z,3.98
2019-04-20T13:41:11.680Z,3.67
2019-04-20T13:43:39.653Z,6.03
2019-04-20T13:46:07.136Z,3.05
2019-04-20T13:48:34.897Z,4.03
2019-04-20T13:51:02.377Z,3.08
2019-04-20T13:53:29.673Z,4.00
2019-04-20T13:55:56.468Z,6.00
2019-04-20T13:58:43.585Z,6.00
2019-04-20T14:01:15.274Z,6.45
2019-04-20T14:03:44.895Z,6.30
2019-04-20T14:06:11.756Z,4.75
2019-04-20T14:08:39.552Z,4.60
2019-04-20T14:11:07.311Z,5.28
2019-04-20T14:13:38.975Z,4.37
2019-04-20T14:16:03.145Z,6.42
2019-04-20T14:18:31.141Z,6.47
2019-04-20T14:20:58.326Z,3.60
2019-04-20T14:23:25.274Z,5.80
2019-04-20T14:25:51.898Z,7.83
2019-04-20T14:28:18.742Z,6.95
2019-04-20T14:30:45.927Z,4.40
2019-04-20T14:33:12.906Z,4.03
2019-04-20T14:35:40.835Z,3.37
2019-04-20T14:38:07.900Z,3.42
2019-04-20T14:40:34.799Z,4.50
2019-04-20T14:43:01.739Z,5.47
2019-04-20T14:45:28.874Z,6.75
2019-04-20T14:47:55.542Z,4.50
2019-04-20T14:50:23.462Z,4.95
2019-04-20T14:52:51.490Z,3.40
2019-04-20T14:55:19.422Z,3.85
2019-04-20T14:57:47.771Z,3.62
2019-04-20T15:00:39.527Z,4.55
2019-04-20T15:03:24.483Z,4.42
2019-04-20T15:05:55.764Z,4.22
2019-04-20T15:08:24.792Z,3.92
2019-04-20T15:10:52.152Z,5.72
2019-04-20T15:13:18.835Z,4.58
2019-04-20T15:15:46.413Z,3.75
2019-04-20T15:18:15.558Z,4.33
2019-04-20T15:20:44.159Z,3.25
2019-04-20T15:23:21.661Z,3.17
2019-04-20T15:25:48.612Z,5.37
2019-04-20T15:28:16.502Z,3.35
2019-04-20T15:30:44.488Z,3.60
2019-04-20T15:33:12.601Z,5.00
2019-04-20T15:35:40.056Z,4.50
2019-04-20T15:38:07.126Z,3.98
2019-04-20T15:40:35.219Z,3.60
2019-04-20T15:43:11.785Z,7.83
2019-04-20T15:45:31.466Z,5.42
2019-04-20T15:48:19.776Z,5.85
2019-04-20T15:50:47.785Z,3.60
2019-04-20T15:53:15.631Z,4.42
2019-04-20T15:55:43.840Z,6.53
2019-04-20T15:58:12.204Z,6.20
2019-04-20T16:00:40.413Z,10.78
2019-04-20T16:03:35.181Z,7.40
2019-04-20T16:06:03.556Z,6.47
2019-04-20T16:08:32.392Z,5.42
2019-04-20T16:11:01.373Z,4.87
2019-04-20T16:13:36.073Z,7.37
2019-04-20T16:15:58.099Z,4.22
2019-04-20T16:18:25.187Z,5.60
2019-04-20T16:21:01.646Z,7.25
2019-04-20T16:23:20.810Z,5.40
2019-04-20T16:25:49.922Z,5.72
2019-04-20T16:28:17.389Z,6.37
2019-04-20T16:30:45.510Z,6.00
2019-04-20T16:33:12.489Z,6.35
2019-04-20T16:35:40.558Z,3.92
2019-04-20T16:38:08.691Z,4.05
2019-04-20T16:40:35.762Z,5.90
2019-04-20T16:43:03.787Z,5.62
2019-04-20T16:45:31.064Z,4.20
2019-04-20T16:47:59.997Z,4.47
2019-04-20T16:50:26.873Z,6.10
2019-04-20T16:52:54.978Z,4.60
2019-04-20T16:55:22.884Z,3.60
2019-04-20T16:58:03.801Z,4.55
2019-04-20T17:00:31.730Z,5.65
2019-04-20T17:02:58.586Z,3.12
2019-04-20T17:05:25.761Z,5.22
2019-04-20T17:07:55.362Z,8.13
2019-04-20T17:10:23.889Z,3.08
2019-04-20T17:12:51.436Z,5.83
2019-04-20T17:15:19.394Z,4.95
2019-04-20T17:17:49.280Z,5.67
2019-04-20T17:20:15.633Z,14.53
2019-04-20T17:22:42.646Z,4.62
2019-04-20T17:25:10.167Z,4.28
2019-04-20T17:27:55.378Z,5.03
2019-04-20T17:30:26.950Z,5.67
2019-04-20T17:35:51.366Z,4.58
2019-04-20T17:38:08.849Z,4.15
2019-04-20T17:40:56.019Z,5.80
2019-04-20T17:43:16.098Z,3.37
2019-04-20T17:45:45.633Z,3.75
2019-04-20T17:48:17.217Z,4.53
2019-04-20T17:50:54.580Z,7.00
2019-04-20T17:53:14.457Z,4.90
2019-04-20T17:55:41.059Z,5.75
2019-04-20T17:58:05.711Z,4.37
2019-04-20T18:00:45.360Z,9.65
2019-04-20T18:03:54.061Z,8.03
2019-04-20T18:06:12.764Z,5.72
2019-04-20T18:08:45.508Z,10.72
2019-04-20T18:10:58.773Z,12.65
2019-04-20T18:13:24.238Z,13.10
2019-04-20T18:16:12.446Z,8.50
2019-04-20T18:18:35.388Z,9.20
2019-04-20T18:20:56.902Z,12.53
2019-04-20T18:23:32.002Z,26.45
2019-04-20T18:26:15.865Z,19.77
2019-04-20T18:28:41.766Z,12.63
2019-04-20T18:31:00.189Z,14.35
2019-04-20T18:33:28.810Z,17.15
2019-04-20T18:35:54.162Z,17.70
2019-04-20T18:38:21.973Z,15.10
2019-04-20T18:40:55.697Z,9.60
2019-04-20T18:43:22.230Z,15.35
2019-04-20T18:46:03.763Z,14.33
2019-04-20T18:48:39.400Z,10.00
2019-04-20T18:50:45.755Z,9.05
2019-04-20T18:53:19.048Z,8.45
2019-04-20T18:55:48.052Z,7.33
2019-04-20T18:58:09.336Z,10.18
2019-04-20T19:00:42.189Z,10.40
2019-04-20T19:03:14.498Z,8.70
2019-04-20T19:05:45.834Z,5.92
2019-04-20T19:08:13.965Z,13.25
2019-04-20T19:10:43.502Z,7.65
2019-04-20T19:13:20.247Z,8.05
2019-04-20T19:16:12.066Z,6.47
2019-04-20T19:18:56.240Z,8.43
2019-04-20T19:21:11.062Z,6.53
2019-04-20T19:23:48.630Z,6.37
2019-04-20T19:26:11.864Z,7.85
2019-04-20T19:28:42.606Z,9.33
2019-04-20T19:31:17.513Z,5.92
2019-04-20T19:33:56.455Z,5.53
2019-04-20T19:36:18.311Z,6.75
2019-04-20T19:38:45.591Z,8.00
2019-04-20T19:41:17.548Z,6.37
2019-04-20T19:43:39.973Z,5.50
2019-04-20T19:46:36.637Z,10.32
2019-04-20T19:48:39.409Z,9.15
2019-04-20T19:51:22.443Z,5.72
2019-04-20T19:53:43.676Z,6.45
2019-04-20T19:56:03.472Z,4.40
2019-04-20T19:58:35.968Z,6.20
2019-04-20T20:00:54.201Z,6.28
2019-04-20T20:03:21.626Z,9.43
2019-04-20T20:05:50.905Z,7.70
2019-04-20T20:08:23.042Z,6.42
2019-04-20T20:10:45.839Z,6.33
2019-04-20T20:13:13.175Z,8.00
2019-04-20T20:15:43.198Z,6.05
2019-04-20T20:18:23.380Z,8.28
2019-04-20T20:20:55.331Z,7.95
2019-04-20T20:23:07.922Z,5.87
2019-04-20T20:25:39.204Z,7.28
2019-04-20T20:28:14.691Z,7.30
2019-04-20T20:30:41.840Z,6.80
2019-04-20T20:33:18.939Z,10.10
2019-04-20T20:35:32.499Z,8.75
2019-04-20T20:38:00.704Z,6.80
2019-04-20T20:40:31.128Z,5.92
2019-04-20T20:43:07.487Z,5.72
2019-04-20T20:45:31.538Z,5.58
2019-04-20T20:48:15.260Z,7.25
2019-04-20T20:50:49.107Z,6.70
2019-04-20T20:53:06.410Z,9.50
2019-04-20T20:55:31.826Z,5.20
2019-04-20T20:57:59.248Z,6.42
2019-04-20T21:00:36.010Z,6.95
2019-04-20T21:02:58.563Z,5.83
2019-04-20T21:05:38.222Z,5.83
2019-04-20T21:08:05.906Z,7.85
2019-04-20T21:10:37.526Z,7.42
2019-04-20T21:13:04.950Z,5.10
2019-04-20T21:15:33.324Z,6.28
2019-04-20T21:18:20.872Z,6.25
2019-04-20T21:20:51.941Z,7.30
2019-04-20T21:23:16.242Z,8.88
2019-04-20T21:25:34.536Z,8.93
2019-04-20T21:27:57.891Z,8.98
2019-04-20T21:30:33.132Z,8.05
2019-04-20T21:32:57.322Z,6.87
2019-04-20T21:35:21.867Z,5.75
2019-04-20T21:37:57.004Z,6.15
2019-04-20T21:40:29.330Z,5.55
2019-04-20T21:42:52.552Z,8.00
2019-04-20T21:45:23.101Z,5.87
2019-04-20T21:47:46.384Z,6.35
2019-04-20T21:50:31.162Z,7.03
2019-04-20T21:52:45.133Z,5.65
2019-04-20T21:55:09.933Z,5.22
2019-04-20T21:57:43.258Z,5.92
2019-04-20T22:00:15.668Z,6.15
2019-04-20T22:02:43.736Z,5.95
2019-04-20T22:05:07.305Z,7.60
2019-04-20T22:07:34.561Z,6.78
2019-04-20T22:10:02.353Z,5.85
2019-04-20T22:12:39.750Z,6.28
2019-04-20T22:15:09.241Z,5.40
2019-04-20T22:17:33.154Z,7.00
2019-04-20T22:20:07.502Z,6.55
2019-04-20T22:22:42.438Z,5.95
2019-04-20T22:25:11.000Z,8.90
2019-04-20T22:27:28.258Z,6.83
2019-04-20T22:29:54.279Z,5.40
2019-04-20T22:32:23.550Z,6.90
2019-04-20T22:34:56.817Z,7.15
2019-04-20T22:37:26.240Z,7.12
2019-04-20T22:39:52.888Z,6.97
2019-04-20T22:42:20.005Z,10.40
2019-04-20T22:44:54.702Z,5.58
2019-04-20T22:47:22.619Z,9.83
2019-04-20T22:50:03.648Z,5.87
2019-04-20T22:52:30.437Z,9.43
2019-04-20T22:54:54.690Z,6.40
2019-04-20T22:57:28.011Z,7.25
2019-04-20T22:59:48.517Z,5.20
2019-04-20T23:02:08.445Z,9.48
2019-04-20T23:04:37.002Z,6.03
2019-04-20T23:07:04.939Z,7.58
2019-04-20T23:09:34.203Z,7.08
2019-04-20T23:12:06.228Z,9.55
2019-04-20T23:14:28.833Z,5.42
2019-04-20T23:16:57.476Z,6.20
2019-04-20T23:19:34.476Z,8.98
2019-04-20T23:21:58.950Z,9.43
2019-04-20T23:24:41.582Z,8.95
2019-04-20T23:27:16.364Z,5.17
2019-04-20T23:29:39.519Z,4.72
2019-04-20T23:32:11.641Z,7.25
2019-04-20T23:34:37.692Z,7.53
2019-04-20T23:37:10.273Z,5.45
2019-04-20T23:39:37.359Z,5.65
2019-04-20T23:42:06.679Z,7.33
2019-04-20T23:44:31.629Z,5.60
2019-04-20T23:47:15.553Z,6.00
2019-04-20T23:50:00.265Z,7.05
2019-04-20T23:52:38.995Z,10.58
2019-04-20T23:54:49.064Z,6.45
2019-04-20T23:57:08.089Z,5.62
2019-04-20T23:59:41.074Z,5.70
